Time;durP1;ratioP1;P1;durP2;ratioP2;P2;SDS_P1;SDS_P2;PMS_P1;PMS_P2;Temp;Humidity;BMP_temperature;BMP_pressure;BME280_temperature;BME280_humidity;BME280_pressure;Samples;Min_cycle;Max_cycle;Signal;HPM_P1;HPM_P2
2024/03/15 00:00:14;;;;;;;0.50;0.50;;;;;;;9.07;82.68;96999.22;5042139;28;20152;-64
2024/03/15 00:02:41;;;;;;;0.47;0.47;;;;;;;6.87;82.69;96637.88;5052879;28;20458;-64
2024/03/15 00:05:09;;;;;;;0.43;0.43;;;;;;;8.98;82.98;96991.13;5061890;28;20084;-64
2024/03/15 00:07:36;;;;;;;0.40;0.40;;;;;;;8.84;83.32;96985.28;5060689;28;20446;-63
2024/03/15 00:10:03;;;;;;;0.40;0.40;;;;;;;8.74;82.92;96947.16;5061789;28;20056;-63
2024/03/15 00:12:29;;;;;;;0.40;0.40;;;;;;;9.04;82.85;96991.66;5060603;28;20049;-64
2024/03/15 00:14:56;;;;;;;0.40;0.40;;;;;;;8.91;83.29;96968.06;5062309;28;20132;-64
2024/03/15 00:17:23;;;;;;;0.47;0.47;;;;;;;9.05;83.38;96979.44;5060966;28;20052;-64
2024/03/15 00:19:50;;;;;;;0.40;0.40;;;;;;;8.87;83.49;96961.66;5062217;28;20491;-64
2024/03/15 00:22:17;;;;;;;0.40;0.40;;;;;;;8.95;83.64;96993.78;5061995;28;20055;-64
2024/03/15 00:24:43;;;;;;;0.50;0.50;;;;;;;8.91;84.09;96979.94;5062026;28;20056;-64
2024/03/15 00:27:12;;;;;;;0.43;0.43;;;;;;;8.84;84.43;96962.38;5077550;28;20792;-63
2024/03/15 00:29:39;;;;;;;0.40;0.40;;;;;;;8.65;84.45;96971.44;5061048;28;20053;-64
2024/03/15 00:32:06;;;;;;;0.40;0.40;;;;;;;8.86;83.96;96973.88;5061594;28;20136;-64
2024/03/15 00:34:34;;;;;;;0.40;0.40;;;;;;;8.95;83.77;96982.75;5060567;28;20094;-64
2024/03/15 00:37:02;;;;;;;0.40;0.40;;;;;;;8.90;83.80;96981.06;5076940;28;20044;-63
2024/03/15 00:39:29;;;;;;;0.40;0.40;;;;;;;8.86;84.11;96982.16;5061880;28;20057;-64
2024/03/15 00:41:56;;;;;;;0.50;0.50;;;;;;;8.33;85.22;96908.38;5060233;28;20056;-64
2024/03/15 00:44:23;;;;;;;0.40;0.40;;;;;;;8.51;84.83;96945.44;5061277;28;20049;-64
2024/03/15 00:46:50;;;;;;;0.50;0.50;;;;;;;8.76;85.04;96988.22;5063401;28;20160;-64
2024/03/15 00:49:17;;;;;;;0.40;0.40;;;;;;;8.81;85.46;96979.66;5080706;28;20052;-65
2024/03/15 00:51:44;;;;;;;0.40;0.40;;;;;;;8.88;86.26;96985.38;5064147;28;20085;-63
2024/03/15 00:54:11;;;;;;;0.40;0.40;;;;;;;8.86;85.71;96971.09;5064970;28;20072;-64
2024/03/15 00:56:37;;;;;;;0.50;0.50;;;;;;;8.82;85.67;96970.25;5064555;28;20135;-64
2024/03/15 00:59:04;;;;;;;0.50;0.50;;;;;;;8.61;85.99;96931.09;5064717;28;20044;-64
2024/03/15 01:01:31;;;;;;;0.45;0.45;;;;;;;8.85;86.14;96969.53;5065277;28;20055;-64
2024/03/15 01:03:58;;;;;;;0.50;0.50;;;;;;;8.23;86.11;96853.72;5063722;28;20151;-63
2024/03/15 01:06:25;;;;;;;0.40;0.40;;;;;;;8.78;85.37;96936.22;5065330;28;20059;-64
2024/03/15 01:08:52;;;;;;;0.47;0.47;;;;;;;8.81;84.51;96936.28;5065010;28;20052;-64
2024/03/15 01:11:18;;;;;;;0.50;0.50;;;;;;;8.92;85.06;96962.19;5052697;28;20055;-64
2024/03/15 01:13:45;;;;;;;0.40;0.40;;;;;;;8.89;84.85;96959.34;5064240;28;20057;-63
2024/03/15 01:16:12;;;;;;;0.50;0.50;;;;;;;8.79;84.79;96970.94;5064833;28;20044;-64
2024/03/15 01:18:40;;;;;;;0.43;0.43;;;;;;;8.33;85.62;96897.34;5063994;28;20052;-64
2024/03/15 01:21:07;;;;;;;0.40;0.40;;;;;;;8.67;85.53;96968.31;5061983;28;20578;-62
2024/03/15 01:23:34;;;;;;;0.40;0.40;;;;;;;7.79;85.31;96817.22;5063263;28;20535;-62
2024/03/15 01:26:01;;;;;;;0.50;0.50;;;;;;;8.72;85.25;96965.28;5063015;28;20060;-64
2024/03/15 01:28:29;;;;;;;0.40;0.40;;;;;;;8.73;85.75;96956.63;5049287;28;20096;-63
2024/03/15 01:30:58;;;;;;;0.47;0.47;;;;;;;8.75;86.03;96959.03;5043293;28;20124;-63
2024/03/15 01:33:25;;;;;;;0.40;0.40;;;;;;;8.62;86.46;96938.22;5059229;28;20419;-62
2024/03/15 01:35:52;;;;;;;0.50;0.50;;;;;;;7.61;86.18;96783.72;5044845;28;20044;-62
2024/03/15 01:38:19;;;;;;;0.40;0.40;;;;;;;8.58;87.19;96976.00;5060702;28;20064;-62
2024/03/15 01:40:46;;;;;;;0.40;0.40;;;;;;;8.48;87.28;96943.41;5043497;28;20052;-63
2024/03/15 01:43:14;;;;;;;0.40;0.40;;;;;;;8.25;87.78;96898.31;5044445;28;20044;-63
2024/03/15 01:45:42;;;;;;;0.40;0.40;;;;;;;8.61;87.90;96953.19;5043411;28;20208;-63
2024/03/15 01:48:11;;;;;;;0.40;0.40;;;;;;;8.64;88.02;96946.94;5058942;28;20128;-63
2024/03/15 01:50:39;;;;;;;0.40;0.40;;;;;;;8.73;87.41;96951.09;5044376;28;20063;-63
2024/03/15 01:53:07;;;;;;;0.40;0.40;;;;;;;8.74;87.72;96951.91;5042744;28;20084;-64
2024/03/15 01:55:34;;;;;;;0.40;0.40;;;;;;;8.71;87.06;96947.91;5043551;28;20479;-63
2024/03/15 01:58:01;;;;;;;0.40;0.40;;;;;;;8.06;87.00;96843.84;5043916;28;20466;-63
2024/03/15 02:00:28;;;;;;;0.40;0.40;;;;;;;8.78;86.43;96952.78;5043694;28;20678;-64
2024/03/15 02:02:56;;;;;;;0.40;0.40;;;;;;;8.25;86.17;96903.84;5052751;28;20075;-63
2024/03/15 02:05:23;;;;;;;0.40;0.40;;;;;;;8.73;86.41;96961.34;5063524;28;20055;-64
2024/03/15 02:07:53;;;;;;;0.40;0.40;;;;;;;8.76;85.83;96960.63;4888512;28;5002312;-63
2024/03/15 02:10:20;;;;;;;0.43;0.43;;;;;;;8.53;86.05;96948.66;5062098;28;20064;-63
2024/03/15 02:12:49;;;;;;;0.50;0.50;;;;;;;8.66;86.07;96963.97;5063906;28;20056;-63
2024/03/15 02:15:16;;;;;;;0.40;0.40;;;;;;;8.67;86.88;96958.06;5062174;28;20059;-63
2024/03/15 02:17:43;;;;;;;0.50;0.50;;;;;;;8.09;87.50;96858.91;5062074;28;20079;-63
2024/03/15 02:20:15;;;;;;;0.40;0.40;;;;;;;8.69;87.19;96960.47;5064048;28;20067;-63
2024/03/15 02:22:42;;;;;;;0.47;0.47;;;;;;;8.14;87.57;96872.41;5064129;28;20076;-62
2024/03/15 02:25:09;;;;;;;0.40;0.40;;;;;;;8.80;87.51;96958.75;5063425;28;20058;-62
2024/03/15 02:27:36;;;;;;;0.40;0.40;;;;;;;8.64;87.07;96941.41;5063467;28;20494;-63
2024/03/15 02:30:06;;;;;;;0.40;0.40;;;;;;;8.37;86.97;96892.69;5062061;28;20160;-62
2024/03/15 02:32:33;;;;;;;0.40;0.40;;;;;;;8.91;85.89;96957.84;5061835;28;20058;-62
2024/03/15 02:34:59;;;;;;;0.40;0.40;;;;;;;8.81;85.46;96952.06;5063012;28;20048;-63
2024/03/15 02:37:36;;;;;;;0.40;0.40;;;;;;;8.50;86.04;96932.81;5063519;28;20498;-62
2024/03/15 02:40:04;;;;;;;0.40;0.40;;;;;;;8.70;86.21;96924.22;5061765;28;20135;-63
2024/03/15 02:42:30;;;;;;;0.50;0.50;;;;;;;8.82;86.58;96948.16;5061772;28;20061;-62
2024/03/15 02:44:57;;;;;;;0.40;0.40;;;;;;;8.89;86.18;96951.06;5062750;28;20133;-63
2024/03/15 02:47:25;;;;;;;0.50;0.50;;;;;;;8.84;85.39;96945.81;5061550;28;20490;-63
2024/03/15 02:49:53;;;;;;;0.40;0.40;;;;;;;8.31;85.65;96872.88;5062982;28;20044;-63
2024/03/15 02:52:20;;;;;;;0.50;0.50;;;;;;;8.35;86.06;96878.44;5063101;28;20594;-63
2024/03/15 02:54:46;;;;;;;0.40;0.40;;;;;;;8.39;85.50;96890.38;5063062;28;20053;-63
2024/03/15 02:57:13;;;;;;;0.40;0.40;;;;;;;8.58;85.04;96905.00;5063780;28;20055;-62
2024/03/15 02:59:40;;;;;;;0.40;0.40;;;;;;;8.39;87.60;96951.09;5063762;28;20322;-62
2024/03/15 03:02:08;;;;;;;0.40;0.40;;;;;;;8.51;87.17;96957.31;5046096;28;20052;-63
2024/03/15 03:04:36;;;;;;;0.50;0.50;;;;;;;8.14;88.06;96922.84;5062794;28;20499;-63
2024/03/15 03:07:03;;;;;;;0.50;0.50;;;;;;;8.07;89.63;96955.81;5061659;28;20056;-65
2024/03/15 03:09:31;;;;;;;0.40;0.40;;;;;;;7.42;93.87;96961.94;5062233;28;20076;-63
2024/03/15 03:11:58;;;;;;;0.35;0.35;;;;;;;7.21;94.45;96917.25;5062649;28;20133;-63
2024/03/15 03:14:25;;;;;;;0.40;0.40;;;;;;;7.85;94.04;96966.63;5062568;28;20099;-65
2024/03/15 03:16:52;;;;;;;0.40;0.40;;;;;;;7.67;93.33;96905.53;5062809;28;20154;-63
2024/03/15 03:19:19;;;;;;;0.40;0.40;;;;;;;8.07;92.25;96966.03;5061928;28;20056;-65
2024/03/15 03:21:46;;;;;;;0.40;0.40;;;;;;;7.69;92.21;96890.25;5062628;28;20754;-64
2024/03/15 03:24:14;;;;;;;0.40;0.40;;;;;;;8.28;90.80;96961.06;5062604;28;20086;-63
2024/03/15 03:26:41;;;;;;;0.40;0.40;;;;;;;8.24;91.36;96960.97;5062531;28;20074;-64
2024/03/15 03:29:08;;;;;;;0.40;0.40;;;;;;;7.99;90.93;96920.09;5062766;28;20167;-65
2024/03/15 03:31:35;;;;;;;0.50;0.50;;;;;;;8.10;90.99;96943.25;5061353;28;20045;-64
2024/03/15 03:34:03;;;;;;;0.40;0.40;;;;;;;7.98;90.75;96935.06;5055101;28;20151;-64
2024/03/15 03:36:31;;;;;;;0.40;0.40;;;;;;;8.22;90.22;96962.47;5081424;28;20082;-65
2024/03/15 03:38:58;;;;;;;0.40;0.40;;;;;;;7.90;90.59;96912.03;5081018;28;20105;-64
2024/03/15 03:41:25;;;;;;;0.40;0.40;;;;;;;8.24;90.50;96960.97;5081382;28;20132;-64
2024/03/15 03:43:51;;;;;;;0.40;0.40;;;;;;;7.94;90.61;96917.63;5083340;28;20052;-63
2024/03/15 03:46:21;;;;;;;0.40;0.40;;;;;;;7.56;90.39;96863.91;5082748;28;20058;-64
2024/03/15 03:48:48;;;;;;;0.40;0.40;;;;;;;8.14;90.47;96963.47;5080782;28;20048;-63
2024/03/15 03:51:15;;;;;;;0.40;0.40;;;;;;;8.05;90.71;96968.31;5082708;28;20055;-65
2024/03/15 03:53:42;;;;;;;0.40;0.40;;;;;;;8.06;91.32;96964.44;5082772;28;20063;-64
2024/03/15 03:56:09;;;;;;;0.40;0.40;;;;;;;8.17;90.45;96965.50;5073822;28;20430;-64
2024/03/15 03:58:36;;;;;;;0.40;0.40;;;;;;;7.84;89.93;96935.50;5081096;28;20044;-64
2024/03/15 04:01:03;;;;;;;0.40;0.40;;;;;;;8.12;90.07;96974.03;5082250;28;20056;-64
2024/03/15 04:03:31;;;;;;;0.40;0.40;;;;;;;8.10;90.33;96966.13;5070765;28;20056;-64
2024/03/15 04:05:58;;;;;;;0.40;0.40;;;;;;;8.13;90.16;96959.06;5061817;28;20048;-65
2024/03/15 04:08:25;;;;;;;0.40;0.40;;;;;;;8.04;90.61;96950.19;5060084;28;20064;-65
2024/03/15 04:10:51;;;;;;;0.40;0.40;;;;;;;8.17;90.44;96959.97;5054456;28;20052;-64
2024/03/15 04:13:22;;;;;;;0.40;0.40;;;;;;;7.80;90.03;96911.75;5040554;28;20057;-64
2024/03/15 04:15:51;;;;;;;0.40;0.40;;;;;;;8.04;90.55;96966.75;5042051;28;20061;-64
2024/03/15 04:18:17;;;;;;;0.40;0.40;;;;;;;7.71;90.93;96925.72;5042323;28;20468;-64
2024/03/15 04:20:46;;;;;;;0.40;0.40;;;;;;;7.98;90.84;96962.66;5045205;28;20085;-64
2024/03/15 04:23:14;;;;;;;0.40;0.40;;;;;;;7.96;91.03;96967.72;5061353;28;20063;-64
2024/03/15 04:25:43;;;;;;;0.40;0.40;;;;;;;7.88;91.58;96982.47;5045706;28;20056;-64
2024/03/15 04:28:11;;;;;;;0.40;0.40;;;;;;;7.81;91.87;96976.78;5060969;28;20522;-64
2024/03/15 04:30:37;;;;;;;0.47;0.47;;;;;;;7.47;91.53;96932.19;5060756;28;20056;-65
2024/03/15 04:33:06;;;;;;;0.40;0.40;;;;;;;7.88;90.42;96980.53;5046616;28;20132;-63
2024/03/15 04:35:32;;;;;;;0.40;0.40;;;;;;;7.84;90.38;96989.88;5045872;28;20060;-63
2024/03/15 04:38:03;;;;;;;0.40;0.40;;;;;;;5.67;90.91;96655.81;5061371;28;20061;-63
2024/03/15 04:40:30;;;;;;;0.40;0.40;;;;;;;7.73;91.12;96995.88;5045318;28;20424;-64
2024/03/15 04:42:57;;;;;;;0.30;0.30;;;;;;;7.71;91.21;96998.19;5045856;28;20057;-63
2024/03/15 04:45:24;;;;;;;0.40;0.40;;;;;;;7.72;90.72;96997.03;5060284;28;20052;-64
2024/03/15 04:47:50;;;;;;;0.40;0.40;;;;;;;7.66;91.11;97000.41;5045337;28;20148;-64
2024/03/15 04:50:17;;;;;;;0.40;0.40;;;;;;;7.68;91.77;96998.88;5060527;28;20412;-64
2024/03/15 04:52:44;;;;;;;0.40;0.40;;;;;;;7.79;92.05;96998.38;5045583;28;20048;-62
2024/03/15 04:55:11;;;;;;;0.40;0.40;;;;;;;7.77;91.28;97006.19;5044885;28;20685;-64
2024/03/15 04:57:38;;;;;;;0.40;0.40;;;;;;;7.79;91.46;96987.34;5045122;28;20492;-64
2024/03/15 05:00:17;;;;;;;0.40;0.40;;;;;;;7.62;89.90;96964.47;5044894;28;20506;-63
2024/03/15 05:02:48;;;;;;;0.40;0.40;;;;;;;7.97;90.23;96997.69;5049213;28;20049;-64
2024/03/15 05:05:15;;;;;;;0.40;0.40;;;;;;;7.83;89.98;96978.03;5084938;28;20126;-64
2024/03/15 05:07:44;;;;;;;0.40;0.40;;;;;;;8.07;89.54;97004.63;5083579;28;20051;-63
2024/03/15 05:10:14;;;;;;;0.40;0.40;;;;;;;8.06;89.89;97014.09;5085712;28;20063;-63
2024/03/15 05:12:43;;;;;;;0.40;0.40;;;;;;;7.97;91.59;97016.19;5085805;28;20048;-63
2024/03/15 05:15:10;;;;;;;0.40;0.40;;;;;;;8.08;91.21;96995.22;5085264;28;20515;-65
2024/03/15 05:17:39;;;;;;;0.40;0.40;;;;;;;7.94;91.16;96964.50;5085438;28;20044;-64
2024/03/15 05:20:10;;;;;;;0.40;0.40;;;;;;;8.38;90.62;97008.22;5083551;28;20506;-64
2024/03/15 05:22:37;;;;;;;0.40;0.40;;;;;;;8.38;89.39;96994.44;5083359;28;20048;-64
2024/03/15 05:25:09;;;;;;;0.35;0.35;;;;;;;8.29;88.58;96979.22;5084663;28;20415;-64
2024/03/15 05:27:36;;;;;;;0.40;0.40;;;;;;;8.55;87.14;97016.13;5100235;28;20062;-64
2024/03/15 05:30:05;;;;;;;0.50;0.50;;;;;;;8.58;86.65;97020.16;5084299;28;20094;-63
2024/03/15 05:32:32;;;;;;;0.40;0.40;;;;;;;8.20;87.00;96959.25;5083683;28;20044;-64
2024/03/15 05:35:00;;;;;;;0.40;0.40;;;;;;;8.61;86.83;97022.22;5075056;28;20052;-62
2024/03/15 05:37:28;;;;;;;0.40;0.40;;;;;;;8.72;85.99;97020.50;5058793;28;20587;-64
2024/03/15 05:39:55;;;;;;;0.40;0.40;;;;;;;8.80;85.63;97025.03;5044482;28;20045;-64
2024/03/15 05:42:22;;;;;;;0.40;0.40;;;;;;;8.96;85.28;97025.81;5044266;28;20049;-63
2024/03/15 05:44:50;;;;;;;0.40;0.40;;;;;;;9.02;84.54;97051.97;5043623;28;20492;-64
2024/03/15 05:47:16;;;;;;;0.40;0.40;;;;;;;9.21;83.62;97027.94;5044128;28;20049;-64
2024/03/15 05:49:43;;;;;;;0.43;0.43;;;;;;;9.02;82.82;97008.59;5044134;28;20056;-64
2024/03/15 05:52:10;;;;;;;0.40;0.40;;;;;;;8.80;83.22;96950.47;5044372;28;20057;-64
2024/03/15 05:54:37;;;;;;;0.40;0.40;;;;;;;9.38;82.46;97037.78;5043850;28;20405;-64
2024/03/15 05:57:05;;;;;;;0.40;0.40;;;;;;;9.32;82.35;97044.75;5044258;28;20419;-64
2024/03/15 05:59:32;;;;;;;0.40;0.40;;;;;;;9.32;82.74;97038.44;5043631;28;20557;-64
2024/03/15 06:01:59;;;;;;;0.45;0.45;;;;;;;9.40;80.38;97040.19;5058952;28;20393;-64
2024/03/15 06:04:26;;;;;;;0.50;0.50;;;;;;;9.59;80.09;97043.78;5071040;28;20052;-64
2024/03/15 06:06:53;;;;;;;0.50;0.50;;;;;;;9.46;80.89;97027.66;5084040;28;20125;-65
2024/03/15 06:09:20;;;;;;;0.40;0.40;;;;;;;9.76;80.68;97046.09;5081867;28;20079;-63
2024/03/15 06:11:49;;;;;;;0.50;0.50;;;;;;;9.63;79.64;97010.63;5083792;28;20048;-64
2024/03/15 06:14:16;;;;;;;0.50;0.50;;;;;;;10.13;79.25;97047.22;5083859;28;20159;-64
2024/03/15 06:16:43;;;;;;;0.40;0.40;;;;;;;10.23;79.24;97040.28;5081930;28;20052;-63
2024/03/15 06:19:10;;;;;;;0.40;0.40;;;;;;;10.39;76.59;97055.63;5082196;28;20097;-64
2024/03/15 06:21:37;;;;;;;0.40;0.40;;;;;;;10.49;75.03;97065.28;5082319;28;20048;-64
2024/03/15 06:24:06;;;;;;;0.50;0.50;;;;;;;9.72;76.89;96992.66;5098685;28;20054;-64
2024/03/15 06:26:32;;;;;;;0.40;0.40;;;;;;;10.20;76.42;97044.59;5083561;28;20056;-65
2024/03/15 06:29:00;;;;;;;0.50;0.50;;;;;;;10.16;76.30;97060.31;5084566;28;20331;-64
2024/03/15 06:31:27;;;;;;;0.40;0.40;;;;;;;10.32;76.66;97065.78;5083970;28;20123;-64
2024/03/15 06:33:56;;;;;;;0.43;0.43;;;;;;;9.83;76.71;96970.75;5082225;28;20119;-65
2024/03/15 06:36:29;;;;;;;0.47;0.47;;;;;;;9.67;75.20;96945.97;5083541;28;20058;-65
2024/03/15 06:39:09;;;;;;;0.50;0.50;;;;;;;10.31;76.06;97042.00;5083966;28;20052;-64
2024/03/15 06:41:40;;;;;;;0.45;0.45;;;;;;;10.62;75.25;97059.19;5066562;28;20186;-64
2024/03/15 06:49:33;;;;;;;0.50;0.50;;;;;;;10.06;73.87;97010.28;5042306;28;20527;-63
2024/03/15 06:54:45;;;;;;;0.50;0.50;;;;;;;10.80;73.52;97040.09;5042058;28;20057;-63
2024/03/15 06:57:12;;;;;;;0.40;0.40;;;;;;;11.10;70.21;97031.81;5042765;28;20223;-63
2024/03/15 06:59:39;;;;;;;0.50;0.50;;;;;;;11.40;69.31;97055.63;5041279;28;20049;-63
2024/03/15 07:02:08;;;;;;;0.50;0.50;;;;;;;11.39;67.94;97019.97;5042847;28;20064;-63
2024/03/15 07:04:35;;;;;;;0.50;0.50;;;;;;;11.85;68.85;97047.16;5073149;28;20141;-62
2024/03/15 07:07:02;;;;;;;0.60;0.60;;;;;;;12.34;66.30;97049.69;5082448;28;20497;-65
2024/03/15 07:09:28;;;;;;;0.50;0.50;;;;;;;12.61;63.54;97053.91;5082389;28;20503;-63
2024/03/15 07:11:58;;;;;;;0.50;0.50;;;;;;;11.39;64.14;97019.97;5081233;28;20122;-62
2024/03/15 07:14:24;;;;;;;0.52;0.52;;;;;;;12.27;63.17;97054.34;5062688;28;20163;-63
2024/03/15 07:16:51;;;;;;;0.52;0.52;;;;;;;12.41;62.07;97044.19;5061899;28;20059;-63
2024/03/15 07:19:21;;;;;;;0.50;0.50;;;;;;;11.16;63.09;96938.84;5061370;28;20299;-63
2024/03/15 07:21:48;;;;;;;0.60;0.60;;;;;;;12.19;63.32;97039.59;5062661;28;20168;-64
2024/03/15 07:24:16;;;;;;;0.50;0.50;;;;;;;12.55;62.22;97060.19;5060846;28;20612;-63
2024/03/15 07:26:43;;;;;;;0.55;0.55;;;;;;;12.61;61.99;97058.66;5057051;28;20064;-61
2024/03/15 07:29:10;;;;;;;0.50;0.50;;;;;;;12.18;63.08;97058.25;5041862;28;20055;-61
2024/03/15 07:31:38;;;;;;;0.50;0.50;;;;;;;12.20;62.02;97021.75;5041903;28;20048;-64
2024/03/15 07:34:05;;;;;;;0.50;0.50;;;;;;;12.59;61.92;97067.38;5057434;28;20060;-62
2024/03/15 07:36:32;;;;;;;0.50;0.50;;;;;;;11.55;61.14;96879.91;5062180;28;20048;-62
2024/03/15 07:38:59;;;;;;;0.50;0.50;;;;;;;10.57;60.39;96727.13;5060402;28;20056;-63
2024/03/15 07:41:32;;;;;;;0.60;0.60;;;;;;;12.87;61.17;97062.06;5061553;28;20055;-62
2024/03/15 07:44:00;;;;;;;0.60;0.60;;;;;;;12.83;60.93;97052.09;5059894;28;20060;-63
2024/03/15 07:46:27;;;;;;;0.70;0.70;;;;;;;12.96;60.78;97047.84;5060115;28;20075;-63
2024/03/15 07:48:53;;;;;;;0.50;0.50;;;;;;;12.99;60.71;97058.19;5061962;28;20056;-62
2024/03/15 07:51:23;;;;;;;0.60;0.60;;;;;;;11.80;61.73;96935.69;5061901;28;20049;-62
2024/03/15 07:53:50;;;;;;;0.50;0.50;;;;;;;12.26;62.49;97038.88;5059817;28;20070;-63
2024/03/15 07:56:19;;;;;;;0.57;0.57;;;;;;;12.19;62.78;97042.38;5065345;28;20056;-62
2024/03/15 07:58:46;;;;;;;0.60;0.60;;;;;;;12.32;62.97;97045.66;5065877;28;20153;-63
2024/03/15 08:01:13;;;;;;;0.57;0.57;;;;;;;12.17;63.25;97022.53;5065663;28;20052;-61
2024/03/15 08:03:41;;;;;;;0.60;0.60;;;;;;;12.53;62.99;97035.59;5061887;28;20509;-65
2024/03/15 08:06:09;;;;;;;0.50;0.50;;;;;;;10.91;63.48;96882.31;5074723;28;20521;-64
2024/03/15 08:08:36;;;;;;;0.50;0.50;;;;;;;11.76;65.43;97041.09;5065440;28;20057;-63
2024/03/15 08:11:03;;;;;;;0.50;0.50;;;;;;;11.78;64.14;97010.19;5059251;28;20057;-63
2024/03/15 08:13:34;;;;;;;0.50;0.50;;;;;;;12.39;63.56;97040.19;5056016;28;20493;-64
2024/03/15 08:16:18;;;;;;;0.50;0.50;;;;;;;12.81;62.72;97030.25;5065356;28;20144;-62
2024/03/15 08:18:48;;;;;;;0.50;0.50;;;;;;;12.81;60.98;96988.56;5066207;28;20063;-64
2024/03/15 08:21:16;;;;;;;0.60;0.60;;;;;;;13.35;59.61;97021.94;5065721;28;20045;-65
2024/03/15 08:23:44;;;;;;;0.60;0.60;;;;;;;11.99;61.04;96936.28;5063498;28;20603;-62
2024/03/15 08:26:12;;;;;;;0.55;0.55;;;;;;;12.77;60.64;96990.50;5064788;28;20053;-64
2024/03/15 08:28:42;;;;;;;0.60;0.60;;;;;;;12.94;59.40;96970.38;5065342;28;20056;-62
2024/03/15 08:31:09;;;;;;;0.60;0.60;;;;;;;12.42;61.60;97023.56;5064712;28;20472;-63
2024/03/15 08:33:37;;;;;;;0.57;0.57;;;;;;;12.36;63.72;97022.28;5062908;28;20059;-69
2024/03/15 08:36:04;;;;;;;0.60;0.60;;;;;;;12.77;62.84;97021.06;5063075;28;20529;-62
2024/03/15 08:38:31;;;;;;;0.60;0.60;;;;;;;13.21;60.81;97018.25;5059973;28;20071;-63
2024/03/15 08:40:58;;;;;;;0.60;0.60;;;;;;;13.34;59.45;97020.31;5044799;28;20070;-65
2024/03/15 08:43:24;;;;;;;0.60;0.60;;;;;;;13.11;59.00;96980.84;5052651;28;20157;-66
2024/03/15 08:45:51;;;;;;;0.60;0.60;;;;;;;12.59;60.87;97014.59;5063879;28;20045;-63
2024/03/15 08:48:18;;;;;;;0.60;0.60;;;;;;;12.53;62.58;97018.91;5062675;28;20143;-65
2024/03/15 08:50:48;;;;;;;0.50;0.50;;;;;;;12.34;62.19;96955.25;5063006;28;20545;-64
2024/03/15 08:53:15;;;;;;;0.50;0.50;;;;;;;11.70;62.49;96908.59;5062582;28;20366;-68
2024/03/15 08:55:42;;;;;;;0.60;0.60;;;;;;;11.77;63.91;97014.13;5063195;28;20515;-66
2024/03/15 08:58:12;;;;;;;0.50;0.50;;;;;;;12.29;62.88;97008.34;5063905;28;20135;-60
2024/03/15 09:00:39;;;;;;;0.60;0.60;;;;;;;12.88;61.75;97002.50;5062961;28;20057;-64
2024/03/15 09:03:06;;;;;;;0.50;0.50;;;;;;;12.83;58.61;96950.06;5064052;28;20052;-62
2024/03/15 09:05:38;;;;;;;0.60;0.60;;;;;;;11.47;59.72;96744.28;5061741;28;20518;-62
2024/03/15 09:08:07;;;;;;;0.57;0.57;;;;;;;13.48;58.65;96986.22;5062923;28;20141;-65
2024/03/15 09:10:34;;;;;;;0.68;0.68;;;;;;;13.99;57.36;96983.22;5064802;28;20505;-65
2024/03/15 09:13:02;;;;;;;0.68;0.68;;;;;;;14.17;58.07;96967.34;5064148;28;20044;-63
2024/03/15 09:15:29;;;;;;;0.60;0.60;;;;;;;12.92;59.14;96897.69;5063314;28;20105;-61
2024/03/15 09:17:59;;;;;;;0.60;0.60;;;;;;;13.31;58.53;96940.41;5063679;28;20351;-62
2024/03/15 09:20:42;;;;;;;0.60;0.60;;;;;;;13.27;57.54;96913.78;5063036;28;20077;-62
2024/03/15 09:23:12;;;;;;;0.60;0.60;;;;;;;13.75;56.87;96967.25;5063140;28;20114;-66
2024/03/15 09:25:39;;;;;;;0.60;0.60;;;;;;;12.40;59.52;96923.13;5062186;28;20386;-65
2024/03/15 09:28:09;;;;;;;0.60;0.60;;;;;;;13.34;59.19;96981.38;5062676;28;20088;-62
2024/03/15 09:30:36;;;;;;;0.60;0.60;;;;;;;13.04;59.08;96966.88;5062542;28;20130;-60
2024/03/15 09:33:11;;;;;;;;;;;;;;;13.47;58.04;96956.78;5061808;28;20048;-69
2024/03/15 09:35:44;;;;;;;0.60;0.60;;;;;;;13.20;56.88;96936.78;5061714;28;19930;-68
2024/03/15 09:38:12;;;;;;;0.60;0.60;;;;;;;13.86;56.67;96923.53;5064170;28;20137;-67
2024/03/15 09:40:39;;;;;;;0.60;0.60;;;;;;;14.65;54.52;96949.09;5061802;28;20051;-66
2024/03/15 09:43:13;;;;;;;0.70;0.70;;;;;;;14.76;53.99;96939.50;5063108;28;20110;-70
2024/03/15 09:45:40;;;;;;;0.60;0.60;;;;;;;14.85;53.52;96902.88;5063329;28;20075;-67
2024/03/15 09:48:15;;;;;;;0.60;0.60;;;;;;;15.10;50.44;96864.53;5063332;28;20382;-65
2024/03/15 09:50:44;;;;;;;0.70;0.70;;;;;;;15.61;50.78;96945.72;5063656;28;20048;-63
2024/03/15 09:53:12;;;;;;;0.77;0.77;;;;;;;15.11;50.53;96905.97;5062286;28;20358;-63
2024/03/15 09:55:40;;;;;;;0.60;0.60;;;;;;;15.61;50.11;96942.94;5063761;28;20048;-67
2024/03/15 09:58:10;;;;;;;0.60;0.60;;;;;;;14.92;51.35;96939.13;5063569;28;20071;-65
2024/03/15 10:00:39;;;;;;;0.70;0.70;;;;;;;14.49;51.47;96918.03;5056527;28;20049;-67
2024/03/15 10:03:07;;;;;;;0.60;0.60;;;;;;;13.41;53.34;96835.94;5046087;28;20506;-67
2024/03/15 10:05:34;;;;;;;0.63;0.63;;;;;;;14.23;52.40;96927.56;5077754;28;20532;-65
2024/03/15 10:08:01;;;;;;;0.60;0.60;;;;;;;14.14;51.80;96881.78;5082943;28;20095;-70
2024/03/15 10:10:28;;;;;;;0.60;0.60;;;;;;;14.34;51.07;96916.44;5083160;28;20048;-70
2024/03/15 10:12:55;;;;;;;0.70;0.70;;;;;;;14.05;52.33;96892.53;5081725;28;20052;-63
2024/03/15 10:15:24;;;;;;;0.60;0.60;;;;;;;13.94;52.64;96937.03;5060753;28;20482;-67
2024/03/15 10:17:53;;;;;;;0.60;0.60;;;;;;;13.39;54.45;96925.34;5062539;28;20580;-63
2024/03/15 10:20:25;;;;;;;0.60;0.60;;;;;;;12.50;55.13;96791.88;5062977;28;20052;-64
2024/03/15 10:22:58;;;;;;;0.60;0.60;;;;;;;13.97;53.29;96924.34;5062963;28;20048;-65
2024/03/15 10:25:28;;;;;;;;;;;;;;;14.59;52.94;96917.25;5063120;28;20056;-63
2024/03/15 10:27:55;;;;;;;0.70;0.70;;;;;;;13.83;52.08;96818.50;5062704;28;19931;-67
2024/03/15 10:30:24;;;;;;;0.57;0.57;;;;;;;14.35;53.16;96918.03;5062062;28;20710;-63
2024/03/15 10:32:53;;;;;;;0.60;0.60;;;;;;;12.75;53.14;96676.03;5077825;28;20044;-66
2024/03/15 10:35:22;;;;;;;0.60;0.60;;;;;;;14.60;52.02;96913.25;5063056;28;20113;-64
2024/03/15 10:37:51;;;;;;;0.70;0.70;;;;;;;15.47;50.67;96912.28;5061543;28;20467;-63
2024/03/15 10:40:23;;;;;;;0.70;0.70;;;;;;;15.31;49.49;96852.50;5060580;28;20052;-65
2024/03/15 10:43:00;;;;;;;0.60;0.60;;;;;;;16.12;47.55;96897.53;5062219;28;20139;-64
2024/03/15 10:45:28;;;;;;;0.70;0.70;;;;;;;14.52;47.01;96621.78;5060048;28;20466;-67
2024/03/15 10:47:57;;;;;;;0.63;0.63;;;;;;;15.30;48.08;96862.84;5061524;28;20151;-67
2024/03/15 10:50:29;;;;;;;0.60;0.60;;;;;;;15.78;47.96;96900.16;5060601;28;20056;-70
2024/03/15 10:52:57;;;;;;;0.70;0.70;;;;;;;16.20;46.59;96857.94;5061947;28;20049;-62
2024/03/15 10:55:29;;;;;;;0.70;0.70;;;;;;;16.81;45.39;96894.59;5059946;28;20143;-63
2024/03/15 10:57:59;;;;;;;0.70;0.70;;;;;;;16.83;45.84;96875.38;5061753;28;20609;-61
2024/03/15 11:00:28;;;;;;;0.77;0.77;;;;;;;16.81;45.18;96833.03;5062186;28;20044;-64
2024/03/15 11:02:57;;;;;;;0.70;0.70;;;;;;;17.38;44.40;96889.97;5077643;28;20064;-64
2024/03/15 11:05:27;;;;;;;0.80;0.80;;;;;;;17.44;44.18;96882.69;5061455;28;20099;-67
2024/03/15 11:08:13;;;;;;;0.70;0.70;;;;;;;17.67;44.91;96880.03;5060134;28;20060;-67
2024/03/15 11:10:55;;;;;;;0.80;0.80;;;;;;;17.53;45.55;96875.38;5061237;28;20052;-66
2024/03/15 11:13:23;;;;;;;0.90;0.90;;;;;;;17.63;45.69;96873.66;5062674;28;20511;-65
2024/03/15 11:15:50;;;;;;;0.70;0.70;;;;;;;15.62;45.06;96534.06;5061788;28;20056;-61
2024/03/15 11:18:18;;;;;;;0.70;0.70;;;;;;;17.00;43.97;96801.66;5061615;28;20060;-66
2024/03/15 11:20:54;;;;;;;0.80;0.80;;;;;;;16.82;45.92;96852.19;5061528;28;20104;-70
2024/03/15 11:23:26;;;;;;;0.70;0.70;;;;;;;17.00;46.46;96885.59;5062214;28;20525;-66
2024/03/15 11:25:56;;;;;;;0.70;0.70;;;;;;;16.95;46.49;96886.03;5061989;28;20099;-66
2024/03/15 11:28:34;;;;;;;0.73;0.73;;;;;;;15.90;48.66;96843.03;5060548;28;20064;-66
2024/03/15 11:31:01;;;;;;;0.70;0.70;;;;;;;15.67;49.67;96824.00;5061225;28;20132;-64
2024/03/15 11:33:29;;;;;;;0.70;0.70;;;;;;;15.90;49.86;96879.34;5061542;28;20048;-67
2024/03/15 11:35:57;;;;;;;0.70;0.70;;;;;;;15.86;50.23;96876.56;5061098;28;20139;-68
2024/03/15 11:38:26;;;;;;;0.65;0.65;;;;;;;15.62;50.08;96863.53;5060123;28;20057;-68
2024/03/15 11:40:56;;;;;;;0.60;0.60;;;;;;;15.59;49.91;96897.03;5076373;28;20054;-69
2024/03/15 11:43:23;;;;;;;0.70;0.70;;;;;;;14.69;51.38;96800.13;5061538;28;20052;-65
2024/03/15 11:45:50;;;;;;;0.63;0.63;;;;;;;14.02;52.65;96820.91;5061744;28;20048;-67
2024/03/15 11:48:20;;;;;;;0.70;0.70;;;;;;;14.44;54.50;96898.94;5043398;28;20153;-68
2024/03/15 11:50:49;;;;;;;0.60;0.60;;;;;;;14.30;54.90;96896.94;5061555;28;20129;-66